• Join FlightAware (Why Join?)
  • Login
  • US Flag 
03:58PM EDT


 

Airport Tracker/Info


-or-


 

Live Flight TrackerFlight Track Log ✈ N101MA ✈ 09-Jul-2013 ✈ KOXB - KJFK

Flight Track Log - Related Links

Times and Time Zones

All times are in EDT time to prevent confusion due to time zone crossing. See the N101MA flight status page for this flight to view local times or setup timezone preferences in your user account.

Time Position Orientation Groundspeed Altitude Reporting Facility
EDT Latitude Longitude Course Direction KTS MPH feet Rate Location/Type
05:56AM 38.3889 -75.0883 358° North 159 183 2,900  Level Washington Center
05:57AM 38.4286 -75.0856 North 139 160 3,800 900 Climbing Washington Center
05:58AM 38.4681 -75.0772 North 139 160 4,700 840 Climbing Washington Center
05:59AM 38.5078 -75.0717 North 139 160 5,600 840 Climbing Washington Center
06:00AM 38.5472 -75.0633 North 139 160 6,400 600 Climbing Washington Center
06:01AM 38.5911 -75.0553 North 144 166 6,900 300 Climbing Washington Center
06:02AM 38.6411 -75.0494 North 156 180 7,100 60 Climbing Washington Center
06:03AM 38.6911 -75.0411 North 168 193 7,100  Level Washington Center
06:04AM 38.7369 -75.0356 North 190 219 7,100  Level Washington Center
06:05AM 38.7953 -75.0244 North 180 207 7,100  Level Washington Center
06:06AM 38.8450 -75.0158 North 180 207 7,100  Level Washington Center
06:08AM 38.8886 -74.9866 28° Northeast  Level Estimated
06:08AM 38.9431 -74.9992 28° Northeast 190 219 7,100  Level Washington Center
06:10AM 38.9880 -74.9481 41° Northeast  Level FlightAware Approximate
06:12AM 39.0942 -74.8186 41° Northeast 195 224 7,100  Level Washington Center
06:14AM 39.1469 -74.7840 27° Northeast  Level Estimated
06:16AM 39.2575 -74.6372 27° Northeast 194 223 7,100  Level Washington Center
06:17AM 39.2331 -74.6684 41° Northeast  Level FlightAware Approximate
06:18AM 39.3007 -74.5879 41° Northeast  Level FlightAware Approximate
06:20AM 39.4225 -74.4497 42° Northeast 193 222 7,100  Level Washington Center
06:21AM 39.4384 -74.5916 27° Northeast  Level Estimated
06:21AM 39.4525 -74.4219 36° Northeast 201 231 7,100  Level New York Center
06:22AM 39.4800 -74.5640 27° Northeast  Level Estimated
06:22AM 39.4894 -74.3781 43° Northeast 207 238 7,100  Level New York Center
06:23AM 39.5325 -74.3292 41° Northeast 195 224 7,100  Level New York Center
06:24AM 39.5733 -74.2856 39° Northeast 195 224 7,100  Level New York Center
06:25AM 39.5456 -74.3067 41° Northeast  Level FlightAware Approximate
06:25AM 39.6125 -74.2389 43° Northeast 195 224 7,100  Level New York Center
06:26AM 39.5805 -74.2664 42° Northeast  Level FlightAware Approximate
06:26AM 39.6492 -74.1978 41° Northeast 195 224 7,100  Level New York Center
06:27AM 39.6939 -74.1619 32° Northeast 188 216 7,100  Level New York Center
06:28AM 39.7467 -74.1375 20° North 177 204 7,100 -60 Level New York Center
06:29AM 39.7972 -74.1183 16° North 182 209 7,000 -60 Descending New York Center
06:30AM 39.8417 -74.0989 19° North 187 215 7,000  Level New York Center
06:31AM 39.8922 -74.0797 16° North 187 215 7,000  Level New York Center
06:32AM 39.9450 -74.0497 24° Northeast 187 215 7,000  Level New York Center
06:33AM 39.9858 -74.0056 40° Northeast 187 215 7,000  Level New York Center
06:34AM 40.0267 -73.9586 41° Northeast 192 221 7,000  Level New York Center
06:35AM 40.0633 -73.9169 41° Northeast 192 221 7,000 -360 Level New York Center
06:36AM 40.1064 -73.8647 43° Northeast 197 227 6,300 -660 Descending New York Center
06:37AM 40.1558 -73.8100 40° Northeast 207 238 5,700 -600 Descending New York Center
06:38AM 40.2011 -73.7547 43° Northeast 212 244 5,100 -660 Descending New York Center
06:39AM 40.2500 -73.7000 40° Northeast 219 252 4,400 -720 Descending New York TRACON
06:40AM 40.3000 -73.6500 37° Northeast 215 247 3,600 -660 Descending New York TRACON
06:41AM 40.3500 -73.6167 27° Northeast 205 236 3,100 -360 Descending New York TRACON
06:42AM 40.3886 -73.5858 31° Northeast 193 222 3,000 -60 Descending New York Center
06:43AM 40.4311 -73.5522 31° Northeast 181 208 3,000  Level New York Center
06:44AM 40.4756 -73.5158 32° Northeast 181 208 3,000  Level New York Center
06:45AM 40.5222 -73.4875 25° Northeast 181 208 3,000  Level New York Center
06:46AM 40.5667 -73.4667 20° North 177 204 3,100  Climbing New York TRACON
06:47AM 40.6167 -73.4667 360° North 181 208 3,100 -360 Level New York TRACON
06:48AM 40.6667 -73.4500 14° North 195 224 2,500 -540 Descending New York TRACON
06:49AM 40.7167 -73.4333 14° North 195 224 2,100 -240 Descending New York TRACON
06:50AM 40.7667 -73.4500 346° North 168 193 2,100 -60 Level New York TRACON
06:51AM 40.8000 -73.5000 311° West 171 197 2,000  Descending New York TRACON
06:52AM 40.8000 -73.5500 270° West 159 183 2,100  Climbing New York TRACON
06:53AM 40.8000 -73.6000 270° West 158 182 2,100  Level New York TRACON
06:54AM 40.7667 -73.6500 229° Southwest 158 182 2,100  Level New York TRACON
06:55AM 40.7333 -73.6833 217° Southwest 154 177 2,100 -180 Level New York TRACON
06:56AM 40.7000 -73.7000 201° Southwest 119 137 1,800 -600 Descending New York TRACON
06:57AM 40.6833 -73.7333 237° Southwest 122 140 1,000 -840 Descending New York TRACON
06:59AM 40.6333 -73.7667 217° Southwest  Level FlightAware Approximate
07:06AM 40.6398 -73.7789 217° Southwest  Level Estimated
07:07AM 40.6398 -73.7789 217° Southwest  Level Estimated